Time;durP1;ratioP1;P1;durP2;ratioP2;P2;SDS_P1;SDS_P2;PMS_P1;PMS_P2;Temp;Humidity;BMP_temperature;BMP_pressure;BME280_temperature;BME280_humidity;BME280_pressure;Samples;Min_cycle;Max_cycle;Signal;HPM_P1;HPM_P2
2021/08/13 00:01:46;;;;;;;3.50;2.85;;;16.50;99.90;;;;;;4191140;28;20032;-60
2021/08/13 00:03:47;;;;;;;3.58;2.95;;;16.50;99.90;;;;;;4188977;28;20028;-60
2021/08/13 00:05:49;;;;;;;4.28;3.22;;;16.50;99.90;;;;;;4190529;28;20083;-60
2021/08/13 00:07:50;;;;;;;3.88;2.80;;;16.50;99.90;;;;;;4188641;28;20251;-62
2021/08/13 00:09:51;;;;;;;4.47;3.10;;;16.50;99.90;;;;;;4189954;28;20016;-61
2021/08/13 00:11:54;;;;;;;4.05;2.92;;;16.50;99.90;;;;;;4188155;28;20477;-62
2021/08/13 00:13:55;;;;;;;4.03;3.20;;;16.50;99.90;;;;;;4189678;28;20032;-61
2021/08/13 00:15:57;;;;;;;4.22;3.22;;;16.50;99.90;;;;;;4188895;28;20093;-61
2021/08/13 00:17:58;;;;;;;6.13;3.15;;;16.50;99.90;;;;;;4188839;28;20037;-60
2021/08/13 00:19:59;;;;;;;3.05;2.50;;;16.60;99.90;;;;;;4189283;28;20439;-61
2021/08/13 00:22:00;;;;;;;3.30;2.60;;;16.60;99.90;;;;;;4188655;28;20047;-60
2021/08/13 00:24:02;;;;;;;4.85;3.22;;;16.60;99.90;;;;;;4190311;28;20424;-60
2021/08/13 00:26:03;;;;;;;2.53;2.33;;;16.60;99.90;;;;;;4187963;28;20036;-59
2021/08/13 00:28:04;;;;;;;4.40;2.95;;;16.60;99.90;;;;;;4190341;28;20094;-60
2021/08/13 00:30:06;;;;;;;4.70;2.85;;;16.60;99.90;;;;;;4188138;28;21042;-61
2021/08/13 00:32:07;;;;;;;4.30;2.72;;;16.50;99.90;;;;;;4189895;28;20060;-59
2021/08/13 00:34:08;;;;;;;5.60;2.70;;;16.50;99.90;;;;;;4188757;28;20561;-62
2021/08/13 00:36:10;;;;;;;5.57;3.13;;;16.50;99.90;;;;;;4190177;28;20028;-61
2021/08/13 00:38:11;;;;;;;3.78;2.97;;;16.40;99.90;;;;;;4187641;28;20056;-61
2021/08/13 00:40:12;;;;;;;5.05;2.42;;;16.40;99.90;;;;;;4189858;28;20361;-61
2021/08/13 00:42:13;;;;;;;3.75;2.80;;;16.40;99.90;;;;;;4188514;28;20078;-61
2021/08/13 00:44:14;;;;;;;3.22;2.85;;;16.40;99.90;;;;;;4189810;28;20039;-62
2021/08/13 00:46:15;;;;;;;3.75;3.15;;;16.30;99.90;;;;;;4189528;28;20086;-61
2021/08/13 00:48:17;;;;;;;3.58;2.88;;;16.40;99.90;;;;;;4188808;28;20056;-62
2021/08/13 00:50:18;;;;;;;3.58;2.90;;;16.40;99.90;;;;;;4189278;28;20040;-61
2021/08/13 00:52:19;;;;;;;5.47;3.75;;;16.40;99.90;;;;;;4187561;28;20113;-61
2021/08/13 00:54:21;;;;;;;6.47;4.90;;;16.20;99.90;;;;;;4189876;28;20065;-60
2021/08/13 00:56:24;;;;;;;9.50;4.50;;;16.20;99.90;;;;;;4188193;28;20016;-59
2021/08/13 00:58:25;;;;;;;6.95;5.32;;;16.00;99.90;;;;;;4189827;28;20114;-61
2021/08/13 01:00:26;;;;;;;7.07;4.78;;;15.80;99.90;;;;;;4188339;28;20024;-61
2021/08/13 01:02:27;;;;;;;5.18;3.92;;;15.70;99.90;;;;;;4189362;28;20098;-60
2021/08/13 01:04:28;;;;;;;5.28;3.78;;;15.70;99.90;;;;;;4188622;28;20032;-60
2021/08/13 01:06:29;;;;;;;6.15;3.17;;;15.70;99.90;;;;;;4189713;28;20078;-62
2021/08/13 01:08:31;;;;;;;4.03;3.30;;;15.70;99.90;;;;;;4187753;28;20048;-61
2021/08/13 01:10:37;;;;;;;4.72;3.45;;;15.70;99.90;;;;;;4190002;28;20041;-61
2021/08/13 01:13:05;;;;;;;3.85;2.90;;;15.70;99.90;;;;;;4188123;28;20082;-59
2021/08/13 01:15:09;;;;;;;3.60;3.08;;;15.70;99.90;;;;;;4189944;28;20577;-61
2021/08/13 01:17:11;;;;;;;5.45;3.05;;;15.60;99.90;;;;;;4188736;28;20020;-62
2021/08/13 01:19:21;;;;;;;5.05;3.30;;;15.60;99.90;;;;;;4189879;28;20032;-61
2021/08/13 01:21:47;;;;;;;4.43;2.83;;;15.60;99.90;;;;;;4187831;28;20442;-61
2021/08/13 01:24:16;;;;;;;3.40;3.10;;;15.60;99.90;;;;;;4189914;28;20808;-60
2021/08/13 01:26:18;;;;;;;3.10;2.72;;;15.70;99.90;;;;;;4186396;28;20102;-60
2021/08/13 01:28:46;;;;;;;3.63;3.03;;;15.70;99.90;;;;;;4175166;28;20559;-61
2021/08/13 01:30:47;;;;;;;3.60;3.15;;;15.70;99.90;;;;;;4174631;28;20098;-62
2021/08/13 01:32:53;;;;;;;3.90;2.65;;;15.70;99.90;;;;;;4176337;28;20884;-62
2021/08/13 01:34:59;;;;;;;3.80;2.90;;;15.70;99.90;;;;;;4174607;28;20039;-61
2021/08/13 01:37:02;;;;;;;6.15;3.53;;;15.70;99.90;;;;;;4176289;28;20465;-61
2021/08/13 01:39:06;;;;;;;4.63;2.60;;;15.70;99.90;;;;;;4175036;28;20025;-61
2021/08/13 01:41:09;;;;;;;4.35;2.78;;;15.80;99.90;;;;;;4176395;28;20870;-60
2021/08/13 01:43:12;;;;;;;5.07;3.00;;;15.80;99.90;;;;;;4187862;28;20025;-61
2021/08/13 01:45:18;;;;;;;6.07;2.85;;;15.90;99.90;;;;;;4192740;28;20074;-62
2021/08/13 01:47:19;;;;;;;2.78;2.58;;;16.00;99.90;;;;;;4191064;28;20040;-59
2021/08/13 01:49:21;;;;;;;6.35;2.75;;;16.10;99.90;;;;;;4192106;28;20090;-61
2021/08/13 01:51:23;;;;;;;4.13;2.65;;;16.10;99.90;;;;;;4190602;28;20121;-62
2021/08/13 01:53:24;;;;;;;3.42;2.72;;;16.10;99.90;;;;;;4192113;28;20036;-63
2021/08/13 01:55:27;;;;;;;3.88;2.80;;;16.10;99.90;;;;;;4191277;28;20032;-61
2021/08/13 01:57:29;;;;;;;5.30;3.17;;;16.10;99.90;;;;;;4191283;28;20079;-61
2021/08/13 01:59:34;;;;;;;5.10;2.95;;;16.10;99.90;;;;;;4191512;28;20021;-61
2021/08/13 02:01:37;;;;;;;4.05;2.88;;;16.00;99.90;;;;;;4191317;28;20036;-62
2021/08/13 02:03:39;;;;;;;3.35;2.75;;;16.00;99.90;;;;;;4192178;28;20062;-61
2021/08/13 02:05:42;;;;;;;4.15;2.72;;;16.00;99.90;;;;;;4190795;28;20094;-62
2021/08/13 02:07:44;;;;;;;5.05;3.38;;;16.00;99.90;;;;;;4192323;28;20028;-62
2021/08/13 02:09:45;;;;;;;5.85;2.70;;;15.90;99.90;;;;;;4191045;28;20098;-61
2021/08/13 02:11:47;;;;;;;6.80;2.97;;;15.80;99.90;;;;;;4191709;28;20048;-61
2021/08/13 02:13:48;;;;;;;3.95;2.78;;;15.70;99.90;;;;;;4190268;28;20094;-61
2021/08/13 02:16:05;;;;;;;6.10;3.30;;;15.60;99.90;;;;;;4191772;28;20028;-62
2021/08/13 02:18:13;;;;;;;5.10;3.10;;;15.60;99.90;;;;;;4190991;28;20032;-61
2021/08/13 02:20:18;;;;;;;7.57;3.08;;;15.50;99.90;;;;;;4192051;28;20089;-60
2021/08/13 02:22:19;;;;;;;5.82;3.63;;;15.50;99.90;;;;;;4190468;28;20387;-61
2021/08/13 02:24:20;;;;;;;4.47;3.15;;;15.40;99.90;;;;;;4192139;28;20045;-59
2021/08/13 02:26:21;;;;;;;5.53;3.13;;;15.40;99.90;;;;;;4189884;28;20096;-60
2021/08/13 02:28:22;;;;;;;6.30;3.72;;;15.30;99.90;;;;;;4192182;28;20481;-60
2021/08/13 02:30:24;;;;;;;5.82;3.45;;;15.20;99.90;;;;;;4189508;28;20480;-60
2021/08/13 02:32:29;;;;;;;4.80;3.30;;;15.20;99.90;;;;;;4191278;28;20041;-58
2021/08/13 02:34:30;;;;;;;6.70;3.72;;;15.10;99.90;;;;;;4190437;28;20029;-61
2021/08/13 02:36:46;;;;;;;8.27;3.67;;;15.10;99.90;;;;;;4191278;28;20743;-60
2021/08/13 02:39:13;;;;;;;6.00;3.25;;;15.10;99.90;;;;;;4190024;28;20041;-61
2021/08/13 02:41:15;;;;;;;8.40;3.78;;;15.00;99.90;;;;;;4191320;28;20028;-61
2021/08/13 02:43:28;;;;;;;4.00;3.35;;;14.90;99.90;;;;;;4189556;28;20083;-60
2021/08/13 02:45:32;;;;;;;5.70;3.20;;;14.90;99.90;;;;;;4191835;28;20037;-61
2021/08/13 02:47:33;;;;;;;9.07;3.73;;;14.90;99.90;;;;;;4190469;28;20125;-62
2021/08/13 02:49:41;;;;;;;5.93;3.70;;;14.80;99.90;;;;;;4190923;28;20549;-61
2021/08/13 02:51:45;;;;;;;8.57;3.43;;;14.90;99.90;;;;;;4189772;28;20557;-59
2021/08/13 02:53:49;;;;;;;4.57;3.13;;;14.80;99.90;;;;;;4174200;28;20033;-62
2021/08/13 02:56:02;;;;;;;5.67;3.53;;;14.70;99.90;;;;;;4172567;28;20045;-62
2021/08/13 02:58:06;;;;;;;6.50;3.43;;;14.70;99.90;;;;;;4173105;28;20029;-62
2021/08/13 03:00:08;;;;;;;5.83;3.63;;;14.70;99.90;;;;;;4174067;28;20037;-59
2021/08/13 03:02:09;;;;;;;3.90;3.20;;;14.60;99.90;;;;;;4174093;28;20079;-62
2021/08/13 03:04:11;;;;;;;4.90;3.03;;;14.60;99.90;;;;;;4174042;28;20067;-61
2021/08/13 03:06:15;;;;;;;9.90;3.97;;;14.50;99.90;;;;;;4185414;28;20433;-62
2021/08/13 03:08:20;;;;;;;5.47;3.50;;;14.50;99.90;;;;;;4191087;28;20030;-62
2021/08/13 03:10:21;;;;;;;3.87;3.40;;;14.50;99.90;;;;;;4188963;28;20094;-60
2021/08/13 03:12:23;;;;;;;5.83;3.33;;;14.60;99.90;;;;;;4191201;28;20033;-61
2021/08/13 03:14:26;;;;;;;7.63;3.83;;;14.60;99.90;;;;;;4189837;28;20078;-62
2021/08/13 03:16:27;;;;;;;7.17;4.43;;;14.60;99.90;;;;;;4191013;28;20036;-61
2021/08/13 03:18:29;;;;;;;5.63;3.77;;;14.50;99.90;;;;;;4189457;28;20045;-61
2021/08/13 03:20:32;;;;;;;4.60;3.40;;;14.50;99.90;;;;;;4191323;28;20040;-61
2021/08/13 03:22:34;;;;;;;4.80;3.40;;;14.50;99.90;;;;;;4189294;28;20037;-61
2021/08/13 03:24:36;;;;;;;6.67;3.50;;;14.50;99.90;;;;;;4190720;28;20028;-62
2021/08/13 03:26:37;;;;;;;7.40;4.40;;;14.50;99.90;;;;;;4189051;28;20025;-61
2021/08/13 03:28:39;;;;;;;5.90;3.30;;;14.50;99.90;;;;;;4190654;28;20036;-61
2021/08/13 03:30:43;;;;;;;5.70;3.53;;;14.50;99.90;;;;;;4170943;28;20025;-60
2021/08/13 03:32:46;;;;;;;6.30;3.57;;;14.60;99.90;;;;;;4173702;28;20456;-61
2021/08/13 03:34:48;;;;;;;5.20;3.30;;;14.70;99.90;;;;;;4173169;28;20463;-61
2021/08/13 03:36:49;;;;;;;5.97;3.73;;;14.70;99.90;;;;;;4173016;28;20052;-61
2021/08/13 03:38:50;;;;;;;8.47;3.53;;;14.80;99.90;;;;;;4173701;28;20501;-60
2021/08/13 03:40:51;;;;;;;4.50;3.77;;;15.00;99.90;;;;;;4187549;28;20036;-62
2021/08/13 03:42:52;;;;;;;8.70;3.67;;;15.20;99.90;;;;;;4190654;28;20090;-61
2021/08/13 03:44:53;;;;;;;6.00;4.37;;;15.40;99.90;;;;;;4189031;28;20036;-60
2021/08/13 03:46:55;;;;;;;4.28;3.40;;;15.70;99.90;;;;;;4190888;28;20495;-60
2021/08/13 03:48:56;;;;;;;5.50;3.67;;;15.90;99.90;;;;;;4189404;28;20070;-62
2021/08/13 03:50:57;;;;;;;8.93;3.70;;;16.10;99.90;;;;;;4189822;28;20044;-62
2021/08/13 03:52:58;;;;;;;6.85;3.25;;;16.40;99.90;;;;;;4188534;28;20095;-62
2021/08/13 03:54:59;;;;;;;4.43;3.33;;;16.70;99.90;;;;;;4190202;28;20048;-62
2021/08/13 03:57:00;;;;;;;7.22;3.10;;;16.90;99.90;;;;;;4188763;28;20090;-62
2021/08/13 03:59:02;;;;;;;6.03;3.20;;;17.20;99.90;;;;;;4190184;28;20040;-62
2021/08/13 04:01:06;;;;;;;10.88;3.55;;;17.40;99.90;;;;;;4188029;28;20032;-62
2021/08/13 04:03:07;;;;;;;7.68;3.30;;;17.70;99.90;;;;;;4190013;28;20404;-61
2021/08/13 04:05:08;;;;;;;5.82;3.45;;;17.90;99.90;;;;;;4189237;28;20056;-62
2021/08/13 04:07:10;;;;;;;5.68;3.15;;;18.40;99.90;;;;;;4189245;28;20477;-62
2021/08/13 04:09:11;;;;;;;9.77;3.45;;;18.80;99.90;;;;;;4189400;28;20040;-61
2021/08/13 04:11:12;;;;;;;5.70;3.30;;;19.00;99.90;;;;;;4188119;28;20515;-62
2021/08/13 04:13:13;;;;;;;6.22;3.50;;;19.30;99.90;;;;;;4189857;28;20078;-67
2021/08/13 04:15:14;;;;;;;7.30;3.08;;;19.80;99.90;;;;;;4188168;28;20048;-61
2021/08/13 04:17:16;;;;;;;4.25;2.75;;;20.10;99.90;;;;;;4189705;28;20037;-62
2021/08/13 04:19:17;;;;;;;7.45;3.42;;;20.10;99.70;;;;;;4188523;28;20024;-62
2021/08/13 04:21:18;;;;;;;7.25;3.10;;;20.30;99.40;;;;;;4190115;28;20454;-64
2021/08/13 04:23:19;;;;;;;13.30;2.83;;;20.60;99.10;;;;;;4188307;28;20081;-64
2021/08/13 04:25:20;;;;;;;6.72;3.92;;;21.00;98.50;;;;;;4189559;28;20029;-62
2021/08/13 04:27:22;;;;;;;8.25;2.58;;;21.40;97.80;;;;;;4187852;28;20024;-63
2021/08/13 04:29:23;;;;;;;3.22;2.63;;;21.70;97.20;;;;;;4190042;28;20472;-63
2021/08/13 04:31:24;;;;;;;3.92;2.58;;;22.00;96.60;;;;;;4187660;28;20044;-62
2021/08/13 04:33:25;;;;;;;3.90;1.98;;;22.30;95.90;;;;;;4189058;28;20029;-64
2021/08/13 04:35:26;;;;;;;5.22;2.75;;;22.40;95.40;;;;;;4188146;28;20083;-62
2021/08/13 04:37:27;;;;;;;6.22;2.20;;;22.80;95.00;;;;;;4188425;28;20032;-63
2021/08/13 04:39:29;;;;;;;4.80;2.30;;;23.20;94.30;;;;;;4188674;28;20028;-62
2021/08/13 04:41:30;;;;;;;3.35;2.30;;;23.50;93.60;;;;;;4188500;28;20545;-62
2021/08/13 04:43:31;;;;;;;3.65;2.67;;;23.50;93.00;;;;;;4189103;28;20044;-61
2021/08/13 04:45:32;;;;;;;3.63;2.08;;;23.40;92.50;;;;;;4187397;28;20036;-61
2021/08/13 04:47:33;;;;;;;3.20;1.90;;;23.30;92.10;;;;;;4189856;28;20138;-62
2021/08/13 04:49:34;;;;;;;3.67;2.38;;;22.90;92.00;;;;;;4188008;28;20093;-62
2021/08/13 04:51:35;;;;;;;3.35;2.10;;;22.90;92.20;;;;;;4188218;28;20090;-61
2021/08/13 04:53:36;;;;;;;2.95;1.90;;;23.30;92.00;;;;;;4187501;28;20093;-60
2021/08/13 04:55:37;;;;;;;6.35;2.55;;;23.80;91.40;;;;;;4169395;28;20029;-60
2021/08/13 04:57:39;;;;;;;6.55;2.20;;;24.40;90.60;;;;;;4181906;28;20496;-61
2021/08/13 04:59:40;;;;;;;5.68;2.28;;;25.00;89.80;;;;;;4187979;28;20106;-64
2021/08/13 05:01:41;;;;;;;5.60;2.53;;;25.30;88.40;;;;;;4186424;28;20649;-62
2021/08/13 05:03:42;;;;;;;3.50;2.15;;;25.60;87.40;;;;;;4188289;28;20102;-63
2021/08/13 05:05:43;;;;;;;4.95;2.38;;;26.00;86.30;;;;;;4184301;28;20036;-65
2021/08/13 05:07:45;;;;;;;8.32;2.28;;;26.40;85.00;;;;;;4191483;28;20028;-61
2021/08/13 05:09:46;;;;;;;5.55;2.28;;;26.80;83.60;;;;;;4192227;28;20041;-63
2021/08/13 05:11:47;;;;;;;6.75;2.22;;;26.80;82.30;;;;;;4191161;28;20041;-63
2021/08/13 05:13:48;;;;;;;8.75;2.00;;;26.90;81.70;;;;;;4192155;28;20102;-62
2021/08/13 05:15:49;;;;;;;4.43;2.25;;;26.80;80.60;;;;;;4190933;28;20037;-62
2021/08/13 05:17:50;;;;;;;4.03;2.17;;;26.50;80.30;;;;;;4192534;28;20037;-62
2021/08/13 05:19:52;;;;;;;4.13;2.10;;;25.90;80.10;;;;;;4190909;28;20508;-62
2021/08/13 05:21:53;;;;;;;2.25;1.88;;;25.90;80.40;;;;;;4192573;28;20496;-63
2021/08/13 05:23:54;;;;;;;4.50;2.17;;;25.60;80.30;;;;;;4190452;28;20110;-62
2021/08/13 05:26:01;;;;;;;7.45;2.80;;;25.30;80.20;;;;;;4192360;28;20146;-63
2021/08/13 05:28:02;;;;;;;2.95;2.47;;;25.30;80.40;;;;;;4190505;28;20021;-62
2021/08/13 05:30:05;;;;;;;7.38;3.13;;;25.60;80.10;;;;;;4191759;28;20435;-63
2021/08/13 05:32:06;;;;;;;5.05;2.90;;;25.70;79.50;;;;;;4190042;28;20098;-63
2021/08/13 05:34:07;;;;;;;3.05;2.67;;;26.10;79.10;;;;;;4191952;28;20811;-61
2021/08/13 05:36:08;;;;;;;8.82;3.10;;;26.00;78.70;;;;;;4191353;28;20086;-62
2021/08/13 05:38:10;;;;;;;3.92;2.88;;;26.20;78.60;;;;;;4191628;28;20117;-62
2021/08/13 05:40:11;;;;;;;6.13;3.00;;;26.60;77.80;;;;;;4191419;28;20021;-63
2021/08/13 05:42:13;;;;;;;4.45;2.60;;;26.10;77.70;;;;;;4190681;28;20082;-62
2021/08/13 05:44:14;;;;;;;5.25;2.55;;;26.30;78.20;;;;;;4191631;28;20037;-62
2021/08/13 05:46:15;;;;;;;5.35;2.33;;;26.60;77.10;;;;;;4191292;28;20194;-62
2021/08/13 05:48:16;;;;;;;4.72;2.75;;;27.00;76.40;;;;;;4191636;28;20459;-61
2021/08/13 05:50:17;;;;;;;6.57;2.42;;;27.30;75.80;;;;;;4190439;28;20037;-61
2021/08/13 05:52:18;;;;;;;3.83;2.33;;;27.70;75.00;;;;;;4192183;28;20101;-61
2021/08/13 05:54:19;;;;;;;5.20;2.30;;;27.70;74.20;;;;;;4190606;28;20083;-63
2021/08/13 05:56:20;;;;;;;4.03;2.17;;;27.70;74.40;;;;;;4191716;28;20032;-62
2021/08/13 05:58:23;;;;;;;7.10;3.08;;;28.00;73.90;;;;;;4190729;28;20098;-61
2021/08/13 06:00:24;;;;;;;3.97;2.85;;;28.40;73.20;;;;;;4191673;28;20032;-62
2021/08/13 06:02:25;;;;;;;6.07;2.75;;;28.40;72.80;;;;;;4190315;28;20082;-62
2021/08/13 06:04:28;;;;;;;3.33;2.58;;;28.60;72.60;;;;;;4191456;28;20101;-62
2021/08/13 06:06:29;;;;;;;8.82;3.53;;;28.90;72.00;;;;;;4190631;28;20032;-61
2021/08/13 06:08:30;;;;;;;6.53;3.08;;;29.30;71.30;;;;;;4191055;28;20450;-62
2021/08/13 06:10:31;;;;;;;13.50;2.70;;;29.30;70.60;;;;;;4190850;28;20059;-62
2021/08/13 06:12:32;;;;;;;5.88;2.40;;;29.40;70.50;;;;;;4189709;28;20508;-62
2021/08/13 06:14:33;;;;;;;9.32;2.80;;;29.20;70.00;;;;;;4191105;28;20082;-62
2021/08/13 06:16:34;;;;;;;5.18;2.97;;;28.80;70.10;;;;;;4190861;28;20086;-63
2021/08/13 06:18:36;;;;;;;6.97;2.88;;;28.70;70.40;;;;;;4191470;28;20059;-63
2021/08/13 06:20:38;;;;;;;4.38;1.65;;;28.90;70.20;;;;;;4190196;28;20041;-63
2021/08/13 06:22:39;;;;;;;4.57;2.47;;;29.10;69.40;;;;;;4191375;28;20638;-62
2021/08/13 06:24:40;;;;;;;3.13;2.30;;;28.90;69.30;;;;;;4189854;28;20040;-63
2021/08/13 06:26:41;;;;;;;3.65;1.75;;;28.70;69.50;;;;;;4191562;28;20025;-62
2021/08/13 06:28:42;;;;;;;6.95;2.33;;;28.40;69.70;;;;;;4189712;28;20029;-62
2021/08/13 06:30:43;;;;;;;7.50;3.10;;;28.30;70.40;;;;;;4191683;28;20044;-62
2021/08/13 06:32:45;;;;;;;3.97;2.72;;;28.80;69.90;;;;;;4189703;28;20403;-62
2021/08/13 06:34:46;;;;;;;3.10;2.45;;;28.90;69.60;;;;;;4191298;28;20497;-62
2021/08/13 06:36:47;;;;;;;6.80;2.45;;;29.00;69.80;;;;;;4189862;28;20109;-62
2021/08/13 06:38:48;;;;;;;2.97;2.13;;;29.00;68.70;;;;;;4190688;28;20144;-63
2021/08/13 06:40:50;;;;;;;2.67;2.10;;;29.10;68.50;;;;;;4190202;28;20680;-62
2021/08/13 06:42:51;;;;;;;4.03;2.33;;;29.10;68.00;;;;;;4189966;28;20029;-63
2021/08/13 06:44:52;;;;;;;7.72;2.72;;;29.00;68.20;;;;;;4190938;28;20089;-62
2021/08/13 06:46:53;;;;;;;6.95;3.05;;;29.20;68.10;;;;;;4189891;28;20477;-63
2021/08/13 06:48:55;;;;;;;10.68;3.28;;;29.30;67.50;;;;;;4191175;28;20041;-62
2021/08/13 06:50:57;;;;;;;4.47;2.30;;;29.30;67.40;;;;;;4189365;28;20443;-62
2021/08/13 06:52:58;;;;;;;9.48;3.35;;;29.40;67.30;;;;;;4190540;28;20082;-62
2021/08/13 06:54:59;;;;;;;8.93;3.22;;;29.40;67.50;;;;;;4190029;28;20430;-62
2021/08/13 06:57:00;;;;;;;10.02;3.17;;;29.50;67.50;;;;;;4190861;28;20093;-61
2021/08/13 06:59:01;;;;;;;8.55;3.10;;;29.60;67.20;;;;;;4189355;28;20473;-63
2021/08/13 07:01:03;;;;;;;8.88;3.10;;;29.80;67.20;;;;;;4191010;28;20086;-62
2021/08/13 07:03:04;;;;;;;12.65;4.72;;;30.00;66.90;;;;;;4188841;28;20174;-62
2021/08/13 07:05:05;;;;;;;7.10;2.83;;;30.00;66.50;;;;;;4190936;28;20205;-62
2021/08/13 07:07:07;;;;;;;9.77;2.97;;;29.30;66.80;;;;;;4189270;28;20070;-62
2021/08/13 07:09:08;;;;;;;4.93;2.22;;;28.90;67.60;;;;;;4190102;28;20144;-62
2021/08/13 07:11:09;;;;;;;5.38;2.40;;;29.00;67.30;;;;;;4189685;28;20392;-63
2021/08/13 07:13:10;;;;;;;13.20;2.40;;;29.30;67.20;;;;;;4188419;28;20053;-62
2021/08/13 07:15:12;;;;;;;5.13;2.47;;;29.30;66.10;;;;;;4189399;28;20036;-63
2021/08/13 07:17:13;;;;;;;9.00;3.53;;;29.20;66.10;;;;;;4189671;28;20037;-64
2021/08/13 07:19:14;;;;;;;7.00;2.90;;;29.30;66.00;;;;;;4190268;28;20044;-63
2021/08/13 07:21:15;;;;;;;6.95;3.03;;;28.80;66.20;;;;;;4188456;28;20406;-62
2021/08/13 07:23:17;;;;;;;8.02;2.40;;;28.20;67.20;;;;;;4190320;28;20044;-63
2021/08/13 07:25:18;;;;;;;3.63;2.45;;;27.60;67.80;;;;;;4189176;28;20028;-62
2021/08/13 07:27:19;;;;;;;5.05;2.65;;;27.20;68.80;;;;;;4189347;28;20545;-64
2021/08/13 07:29:21;;;;;;;10.63;3.45;;;27.20;69.40;;;;;;4186735;28;20032;-62
2021/08/13 07:31:24;;;;;;;10.68;3.25;;;26.80;70.00;;;;;;4190010;28;20020;-62
2021/08/13 07:33:25;;;;;;;14.95;4.05;;;26.40;70.90;;;;;;4188813;28;20109;-64
2021/08/13 07:35:26;;;;;;;8.45;3.60;;;26.00;71.80;;;;;;4189634;28;20036;-63
2021/08/13 07:37:28;;;;;;;8.00;3.35;;;25.80;72.40;;;;;;4188671;28;20093;-62
2021/08/13 07:39:29;;;;;;;6.38;2.95;;;26.00;72.60;;;;;;4190169;28;20086;-62
2021/08/13 07:41:30;;;;;;;4.65;2.60;;;26.10;72.20;;;;;;4188880;28;20090;-62
2021/08/13 07:43:32;;;;;;;7.20;3.20;;;26.20;72.40;;;;;;4188731;28;20071;-62
2021/08/13 07:45:33;;;;;;;8.25;3.10;;;26.10;72.70;;;;;;4188801;28;20041;-61
2021/08/13 07:47:35;;;;;;;6.60;3.10;;;25.90;73.60;;;;;;4188793;28;20453;-61
2021/08/13 07:49:36;;;;;;;4.15;2.78;;;25.90;74.30;;;;;;4188235;28;20094;-61
2021/08/13 07:51:37;;;;;;;11.40;2.75;;;25.70;74.90;;;;;;4188159;28;20530;-61
2021/08/13 07:53:38;;;;;;;6.47;3.10;;;25.50;75.70;;;;;;4189487;28;20028;-63
2021/08/13 07:55:39;;;;;;;6.68;3.00;;;25.30;77.10;;;;;;4188655;28;20098;-62
2021/08/13 07:57:40;;;;;;;8.02;3.58;;;25.10;77.80;;;;;;4189339;28;20044;-61
2021/08/13 07:59:41;;;;;;;7.03;3.15;;;25.10;78.50;;;;;;4187536;28;20049;-61
2021/08/13 08:01:43;;;;;;;11.15;3.20;;;24.80;79.50;;;;;;4189912;28;20036;-62
2021/08/13 08:03:44;;;;;;;3.58;2.63;;;24.50;80.40;;;;;;4187947;28;20075;-62
2021/08/13 08:05:45;;;;;;;5.22;3.40;;;24.30;81.40;;;;;;4189843;28;20032;-62
2021/08/13 08:07:46;;;;;;;7.50;3.97;;;24.20;82.20;;;;;;4186847;28;20032;-62
2021/08/13 08:09:48;;;;;;;9.68;3.55;;;24.30;82.80;;;;;;4189777;28;20427;-62
2021/08/13 08:11:49;;;;;;;12.30;4.50;;;24.50;82.80;;;;;;4187877;28;20029;-62
2021/08/13 08:13:50;;;;;;;5.75;3.50;;;24.70;82.80;;;;;;4188947;28;20109;-64
2021/08/13 08:15:52;;;;;;;4.63;3.05;;;24.70;82.50;;;;;;4188727;28;20060;-62
2021/08/13 08:17:53;;;;;;;7.40;3.30;;;24.60;82.70;;;;;;4188665;28;20040;-63
2021/08/13 08:19:54;;;;;;;4.78;3.40;;;24.60;83.10;;;;;;4189179;28;20110;-62
2021/08/13 08:21:55;;;;;;;5.88;3.30;;;24.60;83.30;;;;;;4187927;28;20033;-62
2021/08/13 08:23:57;;;;;;;11.20;3.78;;;24.70;83.30;;;;;;4189263;28;20024;-61
2021/08/13 08:25:58;;;;;;;8.35;3.25;;;25.00;82.90;;;;;;4187651;28;20036;-62
2021/08/13 08:27:59;;;;;;;4.00;3.10;;;25.30;82.70;;;;;;4189514;28;20109;-62
2021/08/13 08:30:01;;;;;;;9.23;4.55;;;25.40;82.10;;;;;;4188383;28;20020;-62
2021/08/13 08:32:02;;;;;;;14.43;6.22;;;25.40;82.10;;;;;;4189140;28;20060;-61
2021/08/13 08:34:03;;;;;;;9.10;5.13;;;25.30;82.00;;;;;;4187573;28;20581;-62
2021/08/13 08:36:05;;;;;;;8.10;3.35;;;25.10;82.10;;;;;;4189848;28;20032;-62
2021/08/13 08:38:08;;;;;;;4.82;2.92;;;25.10;82.00;;;;;;4187196;28;20029;-62
2021/08/13 08:40:10;;;;;;;7.15;3.55;;;25.10;81.80;;;;;;4189375;28;20077;-62
2021/08/13 08:42:13;;;;;;;4.00;3.22;;;25.50;81.80;;;;;;4187623;28;20131;-63
2021/08/13 08:44:14;;;;;;;6.60;3.33;;;25.90;81.50;;;;;;4188797;28;20059;-62
2021/08/13 08:46:20;;;;;;;5.97;3.40;;;25.80;82.20;;;;;;4188516;28;20386;-61
2021/08/13 08:48:22;;;;;;;10.68;3.88;;;25.40;82.50;;;;;;4188248;28;20796;-61
2021/08/13 08:50:24;;;;;;;10.13;3.75;;;25.50;82.90;;;;;;4188261;28;20086;-62
2021/08/13 08:52:26;;;;;;;8.48;3.30;;;25.50;82.80;;;;;;4187475;28;20068;-62
2021/08/13 08:54:28;;;;;;;8.00;3.45;;;25.50;82.80;;;;;;4188634;28;20086;-63
2021/08/13 08:56:29;;;;;;;7.65;3.50;;;25.60;82.90;;;;;;4187618;28;20032;-64
2021/08/13 08:58:32;;;;;;;9.27;3.90;;;25.70;82.80;;;;;;4189095;28;20036;-62
2021/08/13 09:00:33;;;;;;;6.05;3.60;;;25.70;82.90;;;;;;4185512;28;20045;-63
2021/08/13 09:02:35;;;;;;;9.48;4.30;;;25.80;82.90;;;;;;4189086;28;20028;-63
2021/08/13 09:04:36;;;;;;;7.38;3.38;;;25.80;82.80;;;;;;4187403;28;20042;-62
2021/08/13 09:06:40;;;;;;;5.20;3.38;;;25.80;82.70;;;;;;4188849;28;20110;-62
2021/08/13 09:08:42;;;;;;;5.32;3.40;;;25.70;82.00;;;;;;4187333;28;20306;-63
2021/08/13 09:10:44;;;;;;;6.55;4.15;;;25.50;82.00;;;;;;4189617;28;20814;-63
2021/08/13 09:12:45;;;;;;;5.30;3.58;;;25.40;82.20;;;;;;4187102;28;20484;-63
2021/08/13 09:14:46;;;;;;;3.33;3.03;;;25.30;82.40;;;;;;4188957;28;20109;-63
2021/08/13 09:17:02;;;;;;;5.70;3.63;;;25.30;82.40;;;;;;4187812;28;20097;-62
2021/08/13 09:19:08;;;;;;;3.58;2.58;;;25.60;82.90;;;;;;4189055;28;20098;-62
2021/08/13 09:21:19;;;;;;;11.20;3.50;;;25.70;82.50;;;;;;4187629;28;20025;-63
2021/08/13 09:23:29;;;;;;;6.45;3.05;;;25.70;82.90;;;;;;4188091;28;20036;-63
2021/08/13 09:25:30;;;;;;;;;;;25.60;84.60;;;;;;4188161;28;20059;-62
2021/08/13 09:27:31;;;;;;;9.98;3.47;;;25.50;83.30;;;;;;4188073;28;19904;-62
2021/08/13 09:29:32;;;;;;;5.47;2.95;;;25.50;83.30;;;;;;4187852;28;20094;-63
2021/08/13 09:31:35;;;;;;;8.18;3.90;;;25.40;82.90;;;;;;4187448;28;20061;-62
2021/08/13 09:33:37;;;;;;;4.70;3.03;;;25.20;83.30;;;;;;4188524;28;20041;-62
2021/08/13 09:35:40;;;;;;;8.10;2.90;;;25.30;83.10;;;;;;4187626;28;20029;-62
2021/08/13 09:37:48;;;;;;;6.53;3.22;;;25.70;82.80;;;;;;4188805;28;20082;-62
2021/08/13 09:39:54;;;;;;;2.80;2.45;;;26.00;82.20;;;;;;4187583;28;20017;-63
2021/08/13 09:41:58;;;;;;;6.90;3.47;;;26.00;82.20;;;;;;4189014;28;20085;-64
2021/08/13 09:44:02;;;;;;;4.90;3.15;;;25.80;82.60;;;;;;4187430;28;20098;-62
2021/08/13 09:46:05;;;;;;;10.57;3.08;;;25.90;82.90;;;;;;4188613;28;20041;-63
2021/08/13 09:48:21;;;;;;;9.43;3.33;;;26.00;82.70;;;;;;4187451;28;20079;-62
2021/08/13 09:50:36;;;;;;;6.18;3.28;;;26.00;83.00;;;;;;4191305;28;20082;-62
2021/08/13 09:52:38;;;;;;;4.88;3.20;;;25.80;83.50;;;;;;4190324;28;20036;-63
2021/08/13 09:54:39;;;;;;;3.50;2.75;;;25.60;83.80;;;;;;4191407;28;20082;-62
2021/08/13 09:56:41;;;;;;;5.57;3.10;;;25.50;83.60;;;;;;4190309;28;20036;-62
2021/08/13 09:58:42;;;;;;;6.85;3.70;;;25.50;83.90;;;;;;4191736;28;20032;-63
2021/08/13 10:00:48;;;;;;;4.22;2.50;;;25.50;84.10;;;;;;4190208;28;20017;-63
2021/08/13 10:02:49;;;;;;;4.22;2.75;;;25.50;83.70;;;;;;4191519;28;20036;-63
2021/08/13 10:04:50;;;;;;;6.55;2.63;;;25.50;83.90;;;;;;4190468;28;20036;-62
2021/08/13 10:06:54;;;;;;;3.70;2.35;;;25.60;83.70;;;;;;4191370;28;20045;-63
2021/08/13 10:08:55;;;;;;;3.88;2.28;;;25.60;82.40;;;;;;4190246;28;20959;-62
2021/08/13 10:11:11;;;;;;;4.53;2.53;;;25.70;82.10;;;;;;4190816;28;20036;-63
2021/08/13 10:13:13;;;;;;;3.10;2.30;;;25.70;81.00;;;;;;4189898;28;20048;-62
2021/08/13 10:15:49;;;;;;;2.97;1.52;;;25.80;81.20;;;;;;4191954;28;20552;-64
2021/08/13 10:17:50;;;;;;;2.67;1.85;;;25.90;76.80;;;;;;4167103;28;20575;-63
2021/08/13 10:19:51;;;;;;;3.08;1.80;;;26.10;78.80;;;;;;4191432;28;20040;-64
2021/08/13 10:21:52;;;;;;;5.05;2.00;;;26.30;77.60;;;;;;4188759;28;20048;-63
2021/08/13 10:23:55;;;;;;;1.75;1.42;;;26.50;77.00;;;;;;4191531;28;20037;-63
2021/08/13 10:25:57;;;;;;;4.90;2.10;;;26.80;75.60;;;;;;4189684;28;20024;-62
2021/08/13 10:27:58;;;;;;;2.58;1.52;;;26.90;74.70;;;;;;4190092;28;20090;-61
2021/08/13 10:30:00;;;;;;;2.35;2.00;;;27.00;74.40;;;;;;4189948;28;20036;-63
2021/08/13 10:32:01;;;;;;;6.53;1.80;;;27.00;73.70;;;;;;4189635;28;20082;-62
2021/08/13 10:34:04;;;;;;;3.70;1.60;;;26.90;73.30;;;;;;4190508;28;20049;-61
2021/08/13 10:36:07;;;;;;;2.03;1.80;;;26.90;73.50;;;;;;4189319;28;20075;-62
2021/08/13 10:38:09;;;;;;;6.07;1.83;;;27.00;73.00;;;;;;4190602;28;20037;-61